»·PEaware :: N1377S KMHV-KSBD

N1377S :: KMHV-KSBD

FLIGHT INFORMATION

Flight Status: Arrived
Operator: Privately registered:
United States
More flights under this callsign
Pilot: Marco F. (42545)
Aircraft: CESSNA 172 SKYHAWK
(C172)
More flights by this aircraft type
Origin: KMHV Mojave
United States
Destination: KSBD San Bernardino Intl
United States
More flights between these airports :: More routes between these airports
Route: PMD
File this flight plan on PilotEdge
Remarks:
Altitude:
(Current/Filed)
7,500ft
Speed:
(Current/Filed)
100kts
Departed: 23-Dec-22 03:16 PM
Arrived: 23-Dec-22 04:03 PM
Distance/Time
Traveled:
73nm/0:47
Distance/Time
To Go:
Arrived

Flight Plot

Page will automatically refresh every two minutes.


Map Options




Map Legend


Flown Route
Filed Route
Departure Airport
Arrival Airport
Navaid (VOR, NDB)
Fix

Horizontal Profiles

Position Reports

Time Latitude Longitude Heading Altitude Ground
Speed
23-Dec-22 15:06 35.057064 -118.155785 267 2765ft 0kts
23-Dec-22 15:07 35.057064 -118.155785 267 2765ft 0kts
23-Dec-22 15:08 35.057065 -118.155790 273 2765ft 0kts
23-Dec-22 15:09 35.057624 -118.159193 270 2771ft 18kts
23-Dec-22 15:10 35.057883 -118.164437 314 2781ft 10kts
23-Dec-22 15:11 35.058346 -118.164921 321 2781ft 0kts
23-Dec-22 15:12 35.058346 -118.164921 321 2781ft 0kts
23-Dec-22 15:13 35.058346 -118.164921 321 2781ft 0kts
23-Dec-22 15:14 35.059170 -118.165542 45 2783ft 8kts
23-Dec-22 15:15 35.059115 -118.147007 91 2942ft 93kts
23-Dec-22 15:16 35.057128 -118.114300 103 3444ft 98kts
23-Dec-22 15:17 35.039778 -118.096235 195 3918ft 100kts
23-Dec-22 15:18 35.014553 -118.109196 188 4347ft 101kts
23-Dec-22 15:19 34.986669 -118.106915 184 4742ft 101kts
23-Dec-22 15:20 34.959107 -118.100585 174 5067ft 103kts
23-Dec-22 15:21 34.930968 -118.095268 178 5409ft 104kts
23-Dec-22 15:22 34.902021 -118.092317 177 5784ft 106kts
23-Dec-22 15:23 34.874899 -118.080049 170 6109ft 109kts
23-Dec-22 15:24 34.845364 -118.082082 195 6486ft 106kts
23-Dec-22 15:25 34.815669 -118.085303 180 6800ft 109kts
23-Dec-22 15:26 34.785129 -118.079769 174 7080ft 110kts
23-Dec-22 15:27 34.754395 -118.072454 180 7344ft 111kts
23-Dec-22 15:28 34.722475 -118.069643 178 7446ft 123kts
23-Dec-22 15:29 34.688722 -118.063431 170 7470ft 121kts
23-Dec-22 15:30 34.656315 -118.057345 177 7477ft 116kts
23-Dec-22 15:31 34.626297 -118.043927 157 7487ft 117kts
23-Dec-22 15:32 34.603029 -118.018847 125 7471ft 111kts
23-Dec-22 15:33 34.583425 -117.989395 128 7491ft 113kts
23-Dec-22 15:34 34.563546 -117.958476 127 7489ft 117kts
23-Dec-22 15:35 34.543387 -117.927259 127 7480ft 117kts
23-Dec-22 15:36 34.523047 -117.895812 127 7480ft 119kts
23-Dec-22 15:37 34.502539 -117.864026 127 7470ft 119kts
23-Dec-22 15:38 34.482184 -117.832506 127 7503ft 116kts
23-Dec-22 15:39 34.462407 -117.801904 127 7608ft 115kts
23-Dec-22 15:40 34.441539 -117.769728 126 7533ft 123kts
23-Dec-22 15:41 34.420926 -117.737903 126 7708ft 112kts
23-Dec-22 15:42 34.402300 -117.709038 126 7958ft 108kts
23-Dec-22 15:43 34.383138 -117.679048 125 8179ft 115kts
23-Dec-22 15:44 34.363459 -117.649015 125 8281ft 108kts
23-Dec-22 15:45 34.344351 -117.619559 126 8358ft 117kts
23-Dec-22 15:46 34.323675 -117.587753 125 8378ft 116kts
23-Dec-22 15:47 34.305175 -117.559303 124 8619ft 101kts
23-Dec-22 15:48 34.288800 -117.533925 125 8781ft 99kts
23-Dec-22 15:49 34.268504 -117.502733 125 8335ft 133kts
23-Dec-22 15:50 34.245666 -117.467591 126 7641ft 134kts
23-Dec-22 15:51 34.222177 -117.431419 127 6970ft 135kts
23-Dec-22 15:52 34.198940 -117.395675 126 6140ft 135kts
23-Dec-22 15:53 34.176545 -117.361252 125 5128ft 126kts
23-Dec-22 15:54 34.160435 -117.378581 284 4297ft 108kts
23-Dec-22 15:55 34.172709 -117.375064 121 3801ft 109kts
23-Dec-22 15:56 34.151873 -117.347291 133 3375ft 109kts
23-Dec-22 15:57 34.132014 -117.322191 132 3176ft 105kts
23-Dec-22 15:58 34.105518 -117.311197 154 2679ft 92kts
23-Dec-22 15:59 34.085979 -117.294165 133 1925ft 81kts
23-Dec-22 16:00 34.085554 -117.268233 72 1431ft 80kts
23-Dec-22 16:01 34.092501 -117.244467 72 1101ft 50kts
23-Dec-22 16:02 34.094772 -117.240663 34 1109ft 0kts
23-Dec-22 16:03 34.096197 -117.238379 68 1113ft 16kts
23-Dec-22 16:04 34.098062 -117.232027 69 1138ft 23kts
23-Dec-22 16:05 34.100188 -117.224878 69 1153ft 16kts
23-Dec-22 16:06 34.102123 -117.224703 87 1154ft 3kts
23-Dec-22 16:07 34.101911 -117.224529 177 1155ft 0kts
23-Dec-22 16:08 34.101911 -117.224529 177 1155ft 0kts
23-Dec-22 16:09 34.101911 -117.224529 177 1155ft 0kts

Navigation Log

Ident Type
Flight plan parsing failed, navigation log unavailable